createdAt,value
2022-07-26T00:02:20.807Z,100798.66
2022-07-26T00:04:47.241Z,100798.25
2022-07-26T00:07:13.730Z,100798.81
2022-07-26T00:09:42.748Z,100793.72
2022-07-26T00:12:13.130Z,100790.97
2022-07-26T00:14:39.586Z,100792.16
2022-07-26T00:17:08.079Z,100796.81
2022-07-26T00:19:34.708Z,100789.81
2022-07-26T00:22:19.827Z,100797.03
2022-07-26T00:24:46.288Z,100794.19
2022-07-26T00:27:12.709Z,100796.00
2022-07-26T00:29:39.479Z,100796.00
2022-07-26T00:32:06.179Z,100794.00
2022-07-26T00:34:32.652Z,100796.41
2022-07-26T00:36:59.244Z,100802.59
2022-07-26T00:39:25.740Z,100797.28
2022-07-26T00:41:52.673Z,100803.75
2022-07-26T00:44:19.105Z,100798.44
2022-07-26T00:46:45.563Z,100814.03
2022-07-26T00:49:13.068Z,100800.34
2022-07-26T00:51:39.972Z,100812.03
2022-07-26T00:54:07.911Z,100812.56
2022-07-26T00:56:34.871Z,100817.13
2022-07-26T00:59:01.424Z,100805.13
2022-07-26T01:01:27.981Z,100805.56
2022-07-26T01:03:54.824Z,100811.19
2022-07-26T01:06:27.170Z,100808.84
2022-07-26T01:08:54.543Z,100805.75
2022-07-26T01:11:21.038Z,100804.56
2022-07-26T01:13:48.763Z,100807.88
2022-07-26T01:16:15.836Z,100808.19
2022-07-26T01:18:42.605Z,100802.78
2022-07-26T01:21:13.219Z,100802.22
2022-07-26T01:23:41.717Z,100798.59
2022-07-26T01:26:08.632Z,100804.34
2022-07-26T01:28:37.613Z,100793.50
2022-07-26T01:31:06.071Z,100793.19
2022-07-26T01:33:33.787Z,100796.69
2022-07-26T01:36:01.035Z,100796.97
2022-07-26T01:38:28.031Z,100794.75
2022-07-26T01:40:54.731Z,100792.84
2022-07-26T01:43:21.149Z,100803.06
2022-07-26T01:45:47.936Z,100796.03
2022-07-26T01:48:14.544Z,100795.50
2022-07-26T01:50:41.058Z,100799.41
2022-07-26T01:53:07.507Z,100798.91
2022-07-26T01:55:34.558Z,100799.34
2022-07-26T01:58:01.100Z,100793.94
2022-07-26T02:00:28.992Z,100793.28
2022-07-26T02:02:55.849Z,100795.41
2022-07-26T02:05:22.584Z,100797.50
2022-07-26T02:07:49.402Z,100792.50
2022-07-26T02:10:17.392Z,100792.63
2022-07-26T02:12:44.281Z,100801.94
2022-07-26T02:15:12.535Z,100805.66
2022-07-26T02:17:39.056Z,100807.59
2022-07-26T02:20:06.687Z,100790.91
2022-07-26T02:22:33.118Z,100801.22
2022-07-26T02:25:04.735Z,100800.06
2022-07-26T02:27:31.832Z,100801.44
2022-07-26T02:29:58.455Z,100804.56
2022-07-26T02:32:24.877Z,100803.88
2022-07-26T02:34:51.321Z,100797.84
2022-07-26T02:37:17.780Z,100797.00
2022-07-26T02:39:44.401Z,100811.22
2022-07-26T02:42:10.846Z,100800.50
2022-07-26T02:44:37.473Z,100809.41
2022-07-26T02:47:03.901Z,100808.66
2022-07-26T02:49:30.408Z,100807.72
2022-07-26T02:51:57.484Z,100808.78
2022-07-26T02:54:23.931Z,100811.09
2022-07-26T02:56:50.583Z,100810.38
2022-07-26T02:59:16.976Z,100801.84
2022-07-26T03:01:43.521Z,100811.00
2022-07-26T03:04:10.305Z,100809.75
2022-07-26T03:06:37.117Z,100813.97
2022-07-26T03:09:04.629Z,100814.09
2022-07-26T03:11:31.227Z,100820.16
2022-07-26T03:13:57.671Z,100816.31
2022-07-26T03:16:28.992Z,100830.34
2022-07-26T03:18:56.125Z,100831.50
2022-07-26T03:21:22.601Z,100834.03
2022-07-26T03:23:48.995Z,100834.16
2022-07-26T03:26:15.640Z,100833.28
2022-07-26T03:28:42.555Z,100830.00
2022-07-26T03:31:09.167Z,100834.47
2022-07-26T03:33:36.022Z,100826.41
2022-07-26T03:36:02.422Z,100827.53
2022-07-26T03:38:29.055Z,100822.13
2022-07-26T03:40:55.463Z,100828.28
2022-07-26T03:43:23.409Z,100843.28
2022-07-26T03:45:50.652Z,100840.31
2022-07-26T03:48:17.255Z,100832.34
2022-07-26T03:50:43.721Z,100829.34
2022-07-26T03:53:10.336Z,100828.97
2022-07-26T03:55:55.363Z,100828.97
2022-07-26T03:58:22.027Z,100839.84
2022-07-26T04:00:48.579Z,100832.84
2022-07-26T04:03:15.058Z,100836.34
2022-07-26T04:05:48.533Z,100829.06
2022-07-26T04:08:16.256Z,100830.84
2022-07-26T04:10:47.252Z,100831.81
2022-07-26T04:13:13.741Z,100828.38
2022-07-26T04:15:40.270Z,100829.78
2022-07-26T04:18:06.653Z,100835.84
2022-07-26T04:20:33.347Z,100831.38
2022-07-26T04:22:59.743Z,100843.69
2022-07-26T04:25:26.220Z,100834.72
2022-07-26T04:27:52.841Z,100830.44
2022-07-26T04:30:21.764Z,100830.94
2022-07-26T04:32:48.398Z,100839.09
2022-07-26T04:35:16.262Z,100841.13
2022-07-26T04:37:44.918Z,100850.78
2022-07-26T04:40:16.800Z,100844.41
2022-07-26T04:42:43.343Z,100850.53
2022-07-26T04:45:11.098Z,100859.44
2022-07-26T04:47:37.542Z,100861.91
2022-07-26T04:50:04.499Z,100862.56
2022-07-26T04:52:31.018Z,100858.25
2022-07-26T04:54:59.085Z,100862.72
2022-07-26T04:57:25.473Z,100868.59
2022-07-26T05:00:09.913Z,100860.41
2022-07-26T05:02:39.233Z,100862.88
2022-07-26T05:05:07.239Z,100860.50
2022-07-26T05:07:45.174Z,100863.78
2022-07-26T05:10:12.463Z,100872.50
2022-07-26T05:12:38.951Z,100859.44
2022-07-26T05:15:06.807Z,100870.25
2022-07-26T05:17:40.971Z,100873.88
2022-07-26T05:20:09.392Z,100872.41
2022-07-26T05:22:36.549Z,100861.53
2022-07-26T05:25:04.708Z,100877.66
2022-07-26T05:27:31.688Z,100882.00
2022-07-26T05:29:58.723Z,100881.41
2022-07-26T05:32:25.244Z,100881.78
2022-07-26T05:34:51.683Z,100881.31
2022-07-26T05:37:18.135Z,100886.47
2022-07-26T05:39:44.679Z,100888.63
2022-07-26T05:42:11.511Z,100899.34
2022-07-26T05:44:42.728Z,100895.16
2022-07-26T05:47:09.928Z,100898.19
2022-07-26T05:49:40.389Z,100893.72
2022-07-26T05:52:07.718Z,100903.88
2022-07-26T05:54:34.521Z,100902.81
2022-07-26T05:57:01.043Z,100904.06
2022-07-26T05:59:28.432Z,100907.47
2022-07-26T06:01:56.433Z,100910.75
2022-07-26T06:04:27.222Z,100913.78
2022-07-26T06:06:55.189Z,100911.97
2022-07-26T06:09:25.674Z,100915.59
2022-07-26T06:11:52.760Z,100916.25
2022-07-26T06:14:20.209Z,100916.66
2022-07-26T06:16:47.423Z,100916.75
2022-07-26T06:19:13.992Z,100927.16
2022-07-26T06:21:42.185Z,100921.94
2022-07-26T06:24:08.913Z,100928.84
2022-07-26T06:26:35.717Z,100932.16
2022-07-26T06:29:02.127Z,100934.53
2022-07-26T06:31:28.627Z,100937.16
2022-07-26T06:33:55.213Z,100939.63
2022-07-26T06:36:23.483Z,100943.13
2022-07-26T06:38:51.752Z,100938.19
2022-07-26T06:41:18.163Z,100940.47
2022-07-26T06:43:44.711Z,100943.59
2022-07-26T06:46:11.235Z,100933.41
2022-07-26T06:48:37.842Z,100938.88
2022-07-26T06:51:06.069Z,100940.38
2022-07-26T06:53:32.609Z,100944.03
2022-07-26T06:55:59.348Z,100938.94
2022-07-26T06:58:26.097Z,100942.66
2022-07-26T07:00:52.607Z,100948.94
2022-07-26T07:03:19.273Z,100954.13
2022-07-26T07:05:50.061Z,100959.47
2022-07-26T07:08:17.081Z,100963.25
2022-07-26T07:10:44.802Z,100970.38
2022-07-26T07:13:11.429Z,100970.31
2022-07-26T07:15:37.905Z,100974.16
2022-07-26T07:18:04.505Z,100978.97
2022-07-26T07:20:31.077Z,100987.19
2022-07-26T07:22:57.580Z,100982.41
2022-07-26T07:25:30.942Z,100992.06
2022-07-26T07:27:58.272Z,100986.72
2022-07-26T07:30:25.121Z,100999.88
2022-07-26T07:32:55.558Z,100997.06
2022-07-26T07:35:23.550Z,101005.22
2022-07-26T07:37:53.460Z,100999.81
2022-07-26T07:40:22.134Z,101014.97
2022-07-26T07:42:49.141Z,101009.94
2022-07-26T07:45:15.555Z,101022.63
2022-07-26T07:47:41.992Z,101029.28
2022-07-26T07:50:08.795Z,101044.44
2022-07-26T07:52:35.451Z,101049.69
2022-07-26T07:55:40.216Z,101046.56
2022-07-26T07:57:49.117Z,101051.72
2022-07-26T08:00:16.793Z,101061.06
2022-07-26T08:02:45.721Z,101056.78
2022-07-26T08:05:15.184Z,101067.47
2022-07-26T08:07:42.380Z,101061.25
2022-07-26T08:10:09.447Z,101065.72
2022-07-26T08:12:36.591Z,101065.94
2022-07-26T08:15:07.167Z,101074.19
2022-07-26T08:17:34.619Z,101068.03
2022-07-26T08:20:02.549Z,101070.84
2022-07-26T08:22:29.343Z,101068.16
2022-07-26T08:24:55.809Z,101066.63
2022-07-26T08:27:23.375Z,101069.84
2022-07-26T08:29:49.877Z,101077.22
2022-07-26T08:32:16.542Z,101069.00
2022-07-26T08:34:42.982Z,101074.31
2022-07-26T08:37:18.041Z,101069.00
2022-07-26T08:39:46.993Z,101073.97
2022-07-26T08:42:22.660Z,101094.63
2022-07-26T08:44:51.200Z,101100.25
2022-07-26T08:47:35.196Z,101108.28
2022-07-26T08:50:07.513Z,101110.72
2022-07-26T08:52:34.489Z,101119.13
2022-07-26T08:55:01.104Z,101116.28
2022-07-26T08:57:27.634Z,101124.72
2022-07-26T09:00:16.379Z,101130.75
2022-07-26T09:02:42.824Z,101132.94
2022-07-26T09:05:09.423Z,101134.88
2022-07-26T09:07:36.159Z,101136.41
2022-07-26T09:10:07.066Z,101140.81
2022-07-26T09:12:33.688Z,101143.94
2022-07-26T09:15:01.175Z,101155.88
2022-07-26T09:17:44.891Z,101157.19
2022-07-26T09:20:15.102Z,101165.25
2022-07-26T09:23:08.092Z,101167.38
2022-07-26T09:25:43.212Z,101167.72
2022-07-26T09:28:30.883Z,101173.09
2022-07-26T09:31:03.764Z,101177.91
2022-07-26T09:33:51.139Z,101177.47
2022-07-26T09:36:18.886Z,101188.44
2022-07-26T09:38:47.290Z,101183.22
2022-07-26T09:41:20.677Z,101184.81
2022-07-26T09:43:53.178Z,101185.13
2022-07-26T09:46:21.578Z,101185.69
2022-07-26T09:51:40.650Z,101199.75
2022-07-26T09:54:09.066Z,101195.09
2022-07-26T09:56:50.495Z,101188.78
2022-07-26T09:59:20.327Z,101197.31
2022-07-26T10:01:47.986Z,101203.47
2022-07-26T10:04:15.408Z,101203.34
2022-07-26T10:06:42.669Z,101207.53
2022-07-26T10:09:09.898Z,101207.88
2022-07-26T10:11:41.561Z,101212.69
2022-07-26T10:14:33.883Z,101210.38
2022-07-26T10:17:38.587Z,101211.72
2022-07-26T10:20:16.973Z,101210.19
2022-07-26T10:22:50.565Z,101221.28
2022-07-26T10:25:17.033Z,101220.72
2022-07-26T10:27:46.868Z,101214.31
2022-07-26T10:30:19.584Z,101216.59
2022-07-26T10:32:55.251Z,101218.88
2022-07-26T10:35:32.520Z,101221.97
2022-07-26T10:38:01.929Z,101221.38
2022-07-26T10:40:31.815Z,101221.59
2022-07-26T10:46:15.579Z,101222.00
2022-07-26T10:49:03.947Z,101225.78
2022-07-26T10:51:40.000Z,101226.38
2022-07-26T10:54:11.934Z,101230.34
2022-07-26T10:56:39.431Z,101221.38
2022-07-26T10:59:06.746Z,101229.50
2022-07-26T11:01:39.090Z,101228.78
2022-07-26T11:04:26.478Z,101219.09
2022-07-26T11:06:53.129Z,101236.03
2022-07-26T11:09:23.558Z,101248.66
2022-07-26T11:11:52.268Z,101246.75
2022-07-26T11:14:19.628Z,101256.00
2022-07-26T11:16:48.196Z,101255.34
2022-07-26T11:19:21.126Z,101258.19
2022-07-26T11:21:54.679Z,101260.16
2022-07-26T11:24:21.995Z,101273.28
2022-07-26T11:26:48.557Z,101273.47
2022-07-26T11:29:17.379Z,101275.16
2022-07-26T11:31:52.065Z,101261.63
2022-07-26T11:34:29.457Z,101264.91
2022-07-26T11:36:57.880Z,101265.16
2022-07-26T11:39:26.883Z,101250.44
2022-07-26T11:42:07.755Z,101240.63
2022-07-26T11:44:34.797Z,101245.16
2022-07-26T11:47:14.945Z,101247.69
2022-07-26T11:49:52.760Z,101249.78
2022-07-26T11:52:31.870Z,101261.25
2022-07-26T11:54:58.930Z,101267.66
2022-07-26T11:57:32.359Z,101259.22
2022-07-26T12:00:00.736Z,101255.66
2022-07-26T12:02:38.129Z,101244.88
2022-07-26T12:05:18.487Z,101256.38
2022-07-26T12:08:04.791Z,101245.25
2022-07-26T12:10:31.698Z,101244.28
2022-07-26T12:13:09.877Z,101262.56
2022-07-26T12:15:54.419Z,101267.72
2022-07-26T12:18:31.373Z,101262.50
2022-07-26T12:21:06.307Z,101263.88
2022-07-26T12:23:44.782Z,101259.00
2022-07-26T12:26:21.039Z,101259.06
2022-07-26T12:28:47.541Z,101275.91
2022-07-26T12:31:29.781Z,101278.34
2022-07-26T12:33:57.251Z,101277.25
2022-07-26T12:36:28.171Z,101270.34
2022-07-26T12:38:59.765Z,101269.91
2022-07-26T12:41:38.801Z,101273.38
2022-07-26T12:44:08.213Z,101277.94
2022-07-26T12:46:36.516Z,101268.97
2022-07-26T12:49:04.670Z,101273.50
2022-07-26T12:51:31.471Z,101269.28
2022-07-26T12:53:58.099Z,101271.00
2022-07-26T12:56:24.544Z,101267.72
2022-07-26T12:58:51.099Z,101287.75
2022-07-26T13:01:17.584Z,101286.91
2022-07-26T13:03:44.405Z,101294.09
2022-07-26T13:06:11.095Z,101302.31
2022-07-26T13:08:38.602Z,101295.75
2022-07-26T13:11:05.284Z,101288.91
2022-07-26T13:13:31.707Z,101308.66
2022-07-26T13:15:58.782Z,101310.16
2022-07-26T13:18:25.414Z,101316.53
2022-07-26T13:20:51.992Z,101315.53
2022-07-26T13:23:22.059Z,101316.28
2022-07-26T13:25:49.891Z,101309.66
2022-07-26T13:28:17.168Z,101327.78
2022-07-26T13:30:44.070Z,101318.44
2022-07-26T13:33:11.103Z,101327.44
2022-07-26T13:35:39.251Z,101322.50
2022-07-26T13:38:07.734Z,101332.03
2022-07-26T13:40:34.189Z,101331.22
2022-07-26T13:43:00.800Z,101333.94
2022-07-26T13:45:28.780Z,101334.09
2022-07-26T13:47:55.523Z,101337.09
2022-07-26T13:50:22.615Z,101338.75
2022-07-26T13:52:49.194Z,101344.78
2022-07-26T13:55:15.699Z,101344.47
2022-07-26T13:57:55.400Z,101347.88
2022-07-26T14:00:28.784Z,101346.19
2022-07-26T14:02:58.008Z,101354.59
2022-07-26T14:05:24.838Z,101357.34
2022-07-26T14:07:51.580Z,101354.78
2022-07-26T14:10:19.317Z,101369.84
2022-07-26T14:12:45.855Z,101363.84
2022-07-26T14:15:18.068Z,101375.56
2022-07-26T14:17:47.848Z,101369.34
2022-07-26T14:20:21.327Z,101383.63
2022-07-26T14:22:53.778Z,101381.13
2022-07-26T14:25:21.377Z,101379.19
2022-07-26T14:27:47.922Z,101389.19
2022-07-26T14:30:14.598Z,101382.06
2022-07-26T14:32:41.464Z,101391.47
2022-07-26T14:35:08.620Z,101388.63
2022-07-26T14:37:42.977Z,101384.34
2022-07-26T14:40:16.349Z,101394.34
2022-07-26T14:42:43.270Z,101396.50
2022-07-26T14:45:10.784Z,101398.84
2022-07-26T14:47:37.455Z,101399.69
2022-07-26T14:50:07.464Z,101395.66
2022-07-26T14:52:37.511Z,101399.06
2022-07-26T14:55:05.242Z,101407.06
2022-07-26T14:57:31.639Z,101405.97
2022-07-26T14:59:59.242Z,101402.31
2022-07-26T15:02:26.010Z,101394.88
2022-07-26T15:04:52.572Z,101395.84
2022-07-26T15:07:19.144Z,101397.34
2022-07-26T15:09:45.656Z,101400.44
2022-07-26T15:12:12.121Z,101404.75
2022-07-26T15:14:38.643Z,101404.97
2022-07-26T15:17:05.069Z,101413.56
2022-07-26T15:19:31.613Z,101409.19
2022-07-26T15:21:58.991Z,101409.88
2022-07-26T15:24:27.163Z,101396.63
2022-07-26T15:26:53.741Z,101401.72
2022-07-26T15:29:20.355Z,101403.63
2022-07-26T15:31:48.685Z,101410.34
2022-07-26T15:34:15.576Z,101416.66
2022-07-26T15:36:42.564Z,101415.03
2022-07-26T15:39:17.547Z,101408.81
2022-07-26T15:41:48.758Z,101408.25
2022-07-26T15:44:17.387Z,101406.22
2022-07-26T15:46:45.866Z,101396.81
2022-07-26T15:49:15.857Z,101415.31
2022-07-26T15:51:43.001Z,101404.78
2022-07-26T15:54:11.168Z,101408.22
2022-07-26T15:56:37.968Z,101408.91
2022-07-26T15:59:08.415Z,101411.13
2022-07-26T16:01:36.304Z,101418.22
2022-07-26T16:04:04.949Z,101417.13
2022-07-26T16:06:34.974Z,101410.28
2022-07-26T16:09:19.478Z,101406.88
2022-07-26T16:11:47.250Z,101415.38
2022-07-26T16:14:13.969Z,101416.91
2022-07-26T16:16:40.692Z,101405.38
2022-07-26T16:19:07.420Z,101411.88
2022-07-26T16:21:34.171Z,101416.56
2022-07-26T16:24:06.157Z,101421.91
2022-07-26T16:26:33.719Z,101412.41
2022-07-26T16:29:00.634Z,101412.91
2022-07-26T16:31:27.205Z,101415.34
2022-07-26T16:33:53.842Z,101426.34
2022-07-26T16:36:20.277Z,101415.59
2022-07-26T16:38:46.910Z,101422.63
2022-07-26T16:41:13.366Z,101420.69
2022-07-26T16:43:40.283Z,101436.06
2022-07-26T16:46:06.799Z,101434.09
2022-07-26T16:48:33.391Z,101437.34
2022-07-26T16:51:00.097Z,101443.84
2022-07-26T16:53:26.643Z,101441.19
2022-07-26T16:55:53.287Z,101445.66
2022-07-26T16:58:19.726Z,101440.16
2022-07-26T17:00:46.976Z,101438.91
2022-07-26T17:03:15.643Z,101442.13
2022-07-26T17:05:43.537Z,101445.75
2022-07-26T17:08:09.957Z,101444.56
2022-07-26T17:10:36.631Z,101446.38
2022-07-26T17:13:03.047Z,101440.25
2022-07-26T17:15:29.575Z,101446.38
2022-07-26T17:17:56.102Z,101442.19
2022-07-26T17:20:22.890Z,101447.44
2022-07-26T17:25:15.944Z,101442.47
2022-07-26T17:27:42.539Z,101453.50
2022-07-26T17:30:09.794Z,101446.09
2022-07-26T17:32:36.834Z,101443.00
2022-07-26T17:35:07.614Z,101437.91
2022-07-26T17:37:36.789Z,101452.38
2022-07-26T17:40:05.241Z,101448.47
2022-07-26T17:42:34.793Z,101450.19
2022-07-26T17:45:01.362Z,101440.50
2022-07-26T17:47:30.449Z,101437.94
2022-07-26T17:50:26.162Z,101438.97
2022-07-26T17:52:50.400Z,101442.69
2022-07-26T17:55:18.990Z,101442.28
2022-07-26T17:57:47.497Z,101444.19
2022-07-26T18:00:15.077Z,101450.47
2022-07-26T18:02:41.784Z,101442.56
2022-07-26T18:05:08.784Z,101443.81
2022-07-26T18:07:35.254Z,101447.50
2022-07-26T18:10:01.720Z,101453.00
2022-07-26T18:12:30.363Z,101448.03
2022-07-26T18:14:56.981Z,101446.09
2022-07-26T18:17:23.690Z,101455.16
2022-07-26T18:19:50.407Z,101449.28
2022-07-26T18:22:16.816Z,101441.31
2022-07-26T18:24:43.281Z,101449.66
2022-07-26T18:27:09.783Z,101450.06
2022-07-26T18:29:36.261Z,101452.94
2022-07-26T18:32:03.675Z,101462.59
2022-07-26T18:34:30.153Z,101467.06
2022-07-26T18:36:56.656Z,101461.75
2022-07-26T18:39:23.107Z,101467.94
2022-07-26T18:41:49.636Z,101464.31
2022-07-26T18:44:16.104Z,101477.09
2022-07-26T18:46:42.924Z,101469.25
2022-07-26T18:49:14.065Z,101472.00
2022-07-26T18:51:48.723Z,101473.41
2022-07-26T18:54:16.469Z,101478.22
2022-07-26T18:56:44.088Z,101473.84
2022-07-26T18:59:10.916Z,101477.59
2022-07-26T19:01:37.668Z,101482.84
2022-07-26T19:04:07.106Z,101481.63
2022-07-26T19:06:35.870Z,101478.88
2022-07-26T19:09:02.620Z,101478.97
2022-07-26T19:11:30.163Z,101487.03
2022-07-26T19:13:56.657Z,101479.25
2022-07-26T19:16:23.290Z,101479.16
2022-07-26T19:18:53.803Z,101481.91
2022-07-26T19:21:24.184Z,101482.91
2022-07-26T19:23:50.664Z,101482.34
2022-07-26T19:26:17.113Z,101480.63
2022-07-26T19:28:43.531Z,101484.38
2022-07-26T19:31:10.747Z,101492.53
2022-07-26T19:33:37.374Z,101485.75
2022-07-26T19:36:05.444Z,101485.09
2022-07-26T19:38:32.892Z,101495.78
2022-07-26T19:41:00.382Z,101500.22
2022-07-26T19:43:27.581Z,101498.59
2022-07-26T19:45:54.297Z,101494.16
2022-07-26T19:48:21.111Z,101489.88
2022-07-26T19:50:47.615Z,101495.88
2022-07-26T19:53:14.096Z,101505.72
2022-07-26T19:55:41.768Z,101505.06
2022-07-26T19:58:08.241Z,101498.47
2022-07-26T20:00:37.380Z,101500.63
2022-07-26T20:03:04.070Z,101501.91
2022-07-26T20:05:30.551Z,101501.03
2022-07-26T20:07:57.727Z,101498.00
2022-07-26T20:10:28.558Z,101497.56
2022-07-26T20:12:58.281Z,101503.75
2022-07-26T20:15:25.946Z,101508.53
2022-07-26T20:17:52.477Z,101501.50
2022-07-26T20:20:19.914Z,101507.72
2022-07-26T20:22:46.366Z,101512.56
2022-07-26T20:25:15.743Z,101516.44
2022-07-26T20:27:48.230Z,101520.63
2022-07-26T20:30:15.344Z,101521.56
2022-07-26T20:32:42.205Z,101517.13
2022-07-26T20:35:09.492Z,101519.94
2022-07-26T20:37:35.876Z,101521.66
2022-07-26T20:40:03.127Z,101534.28
2022-07-26T20:42:29.699Z,101518.66
2022-07-26T20:44:58.312Z,101517.78
2022-07-26T20:47:25.461Z,101519.50
2022-07-26T20:49:51.905Z,101526.34
2022-07-26T20:52:18.474Z,101515.66
2022-07-26T20:54:45.078Z,101521.84
2022-07-26T20:57:11.465Z,101520.81
2022-07-26T20:59:38.238Z,101531.41
2022-07-26T21:02:04.852Z,101530.78
2022-07-26T21:04:32.228Z,101525.13
2022-07-26T21:06:59.201Z,101530.59
2022-07-26T21:09:30.419Z,101529.97
2022-07-26T21:11:57.555Z,101523.03
2022-07-26T21:14:24.019Z,101527.50
2022-07-26T21:16:50.582Z,101531.19
2022-07-26T21:19:18.025Z,101530.38
2022-07-26T21:21:44.609Z,101531.41
2022-07-26T21:24:11.471Z,101533.19
2022-07-26T21:26:38.266Z,101536.03
2022-07-26T21:29:04.934Z,101526.31
2022-07-26T21:31:31.320Z,101534.28
2022-07-26T21:33:57.834Z,101535.31
2022-07-26T21:36:24.297Z,101535.38
2022-07-26T21:38:50.708Z,101534.53
2022-07-26T21:41:17.128Z,101537.31
2022-07-26T21:43:43.559Z,101536.56
2022-07-26T21:46:12.659Z,101544.41
2022-07-26T21:48:40.355Z,101543.72
2022-07-26T21:51:06.864Z,101540.44
2022-07-26T21:53:33.275Z,101545.63
2022-07-26T21:55:59.712Z,101534.94
2022-07-26T21:58:28.005Z,101543.56
2022-07-26T22:01:03.600Z,101531.97
2022-07-26T22:03:35.299Z,101539.97
2022-07-26T22:06:01.793Z,101539.13
2022-07-26T22:08:28.374Z,101542.63
2022-07-26T22:10:54.926Z,101536.47
2022-07-26T22:13:21.311Z,101534.75
2022-07-26T22:15:47.897Z,101530.47
2022-07-26T22:18:14.569Z,101530.56
2022-07-26T22:20:42.030Z,101542.97
2022-07-26T22:23:10.966Z,101534.22
2022-07-26T22:25:38.632Z,101531.84
2022-07-26T22:28:06.699Z,101535.59
2022-07-26T22:30:33.500Z,101539.25
2022-07-26T22:33:02.047Z,101544.72
2022-07-26T22:35:33.455Z,101543.16
2022-07-26T22:38:06.464Z,101538.22
2022-07-26T22:40:33.581Z,101546.25
2022-07-26T22:43:00.286Z,101538.41
2022-07-26T22:45:27.707Z,101542.44
2022-07-26T22:47:56.496Z,101536.34
2022-07-26T22:50:24.741Z,101535.66
2022-07-26T22:52:51.939Z,101533.28
2022-07-26T22:55:18.446Z,101533.94
2022-07-26T22:57:45.641Z,101537.72
2022-07-26T23:00:13.859Z,101535.09
2022-07-26T23:02:40.550Z,101526.81
2022-07-26T23:05:08.009Z,101538.09
2022-07-26T23:07:35.379Z,101538.88
2022-07-26T23:10:03.869Z,101537.91
2022-07-26T23:12:30.721Z,101538.34
2022-07-26T23:14:57.273Z,101541.19
2022-07-26T23:17:23.877Z,101540.25
2022-07-26T23:19:50.651Z,101541.66
2022-07-26T23:22:17.069Z,101540.88
2022-07-26T23:24:43.791Z,101534.06
2022-07-26T23:27:10.434Z,101543.03
2022-07-26T23:29:36.972Z,101539.19
2022-07-26T23:32:03.717Z,101539.16
2022-07-26T23:34:30.248Z,101532.00
2022-07-26T23:36:56.767Z,101536.34
2022-07-26T23:39:23.175Z,101529.25
2022-07-26T23:41:49.552Z,101532.69
2022-07-26T23:44:16.045Z,101532.69
2022-07-26T23:46:42.467Z,101527.38
2022-07-26T23:49:09.474Z,101533.53
2022-07-26T23:51:36.073Z,101527.47
2022-07-26T23:54:02.493Z,101532.00
2022-07-26T23:56:28.885Z,101537.41
2022-07-26T23:58:55.329Z,101539.28
